Time;durP1;ratioP1;P1;durP2;ratioP2;P2;SDS_P1;SDS_P2;PMS_P1;PMS_P2;Temp;Humidity;BMP_temperature;BMP_pressure;BME280_temperature;BME280_humidity;BME280_pressure;Samples;Min_cycle;Max_cycle;Signal;HPM_P1;HPM_P2
2023/04/19 11:35:16;;;;;;;10.38;3.78;;;;;;;;;;4571993;27;16253563;-95
2023/04/19 11:37:45;;;;;;;6.68;3.30;;;;;;;;;;5217210;22;20581;-95
2023/04/19 11:40:15;;;;;;;7.78;3.65;;;;;;;;;;5123689;28;20500;-95
2023/04/19 11:42:59;;;;;;;9.98;3.92;;;;;;;;;;5107614;28;20028;-95
2023/04/19 11:45:41;;;;;;;7.28;4.07;;;;;;;;;;5122511;28;20100;-94
2023/04/19 11:48:28;;;;;;;;;;;;;;;;;;;;;
2023/04/19 11:51:04;;;;;;;6.97;3.75;;;;;;;;;;5124813;28;20020;-95
2023/04/19 11:53:38;;;;;;;9.07;4.85;;;;;;;;;;5123920;28;20421;-96
2023/04/19 11:56:10;;;;;;;7.45;3.92;;;;;;;;;;5116849;28;20134;-94
2023/04/19 12:01:44;;;;;;;5.85;2.78;;;;;;;;;;5117177;28;19953;-94
2023/04/19 12:04:22;;;;;;;;;;;;;;;;;;;;;
2023/04/19 12:09:29;;;;;;;7.40;4.15;;;;;;;;;;5081923;22;20057;-96
2023/04/19 12:14:44;;;;;;;;;;;;;;;;;;;;;
2023/04/19 12:17:33;;;;;;;;;;;;;;;;;;;;;
2023/04/19 12:23:17;;;;;;;4.70;2.45;;;;;;;;;;5108490;22;20049;-95
2023/04/19 12:26:06;;;;;;;4.55;2.78;;;;;;;;;;5044877;28;20093;-95
2023/04/19 12:28:49;;;;;;;8.55;3.20;;;;;;;;;;5043090;28;20207;-96
2023/04/19 12:35:38;;;;;;;;;;;;;;;;;;;;;
2023/04/19 12:38:12;;;;;;;3.53;1.80;;;;;;;;;;5279302;22;20079;-96
2023/04/19 12:46:10;;;;;;;4.78;2.08;;;;;;;;;;5420863;22;20049;-96
2023/04/19 12:49:22;;;;;;;3.03;1.65;;;;;;;;;;5062732;28;20128;-95
2023/04/19 12:52:10;;;;;;;3.92;1.50;;;;;;;;;;5052852;28;20025;-96
2023/04/19 12:57:42;;;;;;;4.78;1.25;;;;;;;;;;5210642;22;20047;-96
2023/04/19 13:00:47;;;;;;;2.95;1.40;;;;;;;;;;5053843;28;20045;-96
2023/04/19 13:03:15;;;;;;;5.90;1.38;;;;;;;;;;5050639;28;20033;-95
2023/04/19 13:12:32;;;;;;;4.57;1.50;;;;;;;;;;5000746;28;20082;-94
2023/04/19 13:15:06;;;;;;;3.30;1.67;;;;;;;;;;4976394;28;20038;-95
2023/04/19 13:17:42;;;;;;;2.80;1.40;;;;;;;;;;5032551;28;20026;-95
2023/04/19 13:20:34;;;;;;;6.85;1.77;;;;;;;;;;5091770;22;20060;-95
2023/04/19 13:26:05;;;;;;;4.05;1.90;;;;;;;;;;5050820;28;20029;-95
2023/04/19 13:28:34;;;;;;;;;;;;;;;;;;5052959;28;20108;-95
2023/04/19 13:31:16;;;;;;;3.55;1.70;;;;;;;;;;5053314;28;19971;-95
2023/04/19 13:33:54;;;;;;;5.53;1.70;;;;;;;;;;5053961;28;20022;-95
2023/04/19 13:36:50;;;;;;;2.95;1.90;;;;;;;;;;5047677;28;20013;-94
2023/04/19 13:39:45;;;;;;;7.45;1.75;;;;;;;;;;5053361;28;20021;-95
2023/04/19 13:42:50;;;;;;;4.28;1.70;;;;;;;;;;5053178;28;20032;-94
2023/04/19 13:45:19;;;;;;;3.85;1.95;;;;;;;;;;5053019;28;20044;-95
2023/04/19 13:48:17;;;;;;;4.55;1.40;;;;;;;;;;5034145;28;20030;-95
2023/04/19 13:51:04;;;;;;;6.35;1.85;;;;;;;;;;5078470;22;20047;-95
2023/04/19 13:53:49;;;;;;;5.32;1.50;;;;;;;;;;5065073;28;20096;-94
2023/04/19 13:56:17;;;;;;;8.38;1.98;;;;;;;;;;5051959;28;20025;-95
2023/04/19 13:58:54;;;;;;;5.00;1.80;;;;;;;;;;5013321;28;20038;-95
2023/04/19 14:01:43;;;;;;;5.53;2.05;;;;;;;;;;5049242;28;20061;-96
2023/04/19 14:04:16;;;;;;;6.88;2.10;;;;;;;;;;5051278;28;20052;-95
2023/04/19 14:07:01;;;;;;;5.45;1.58;;;;;;;;;;5046065;28;20088;-96
2023/04/19 14:10:05;;;;;;;5.22;1.92;;;;;;;;;;5036300;28;20049;-94
2023/04/19 14:12:34;;;;;;;3.40;1.75;;;;;;;;;;5031799;28;20029;-94
2023/04/19 14:15:00;;;;;;;2.95;1.65;;;;;;;;;;5032118;28;20037;-96
2023/04/19 14:17:30;;;;;;;4.82;1.70;;;;;;;;;;5002583;28;20023;-94
2023/04/19 14:19:58;;;;;;;5.15;1.60;;;;;;;;;;5026911;28;20048;-94
2023/04/19 14:22:54;;;;;;;3.15;1.80;;;;;;;;;;5052406;28;20075;-94
2023/04/19 14:25:24;;;;;;;2.75;1.48;;;;;;;;;;5051124;28;20016;-95
2023/04/19 14:27:54;;;;;;;3.65;1.67;;;;;;;;;;5033444;28;20018;-95
2023/04/19 14:30:20;;;;;;;2.90;1.70;;;;;;;;;;5051632;28;20021;-94
2023/04/19 14:33:08;;;;;;;8.45;1.38;;;;;;;;;;5052589;28;20040;-95
2023/04/19 14:36:06;;;;;;;4.60;1.80;;;;;;;;;;5001858;28;20063;-95
2023/04/19 14:38:54;;;;;;;4.72;1.50;;;;;;;;;;4953352;29;20039;-96
2023/04/19 14:41:38;;;;;;;6.13;1.88;;;;;;;;;;4953187;29;20103;-95
2023/04/19 14:49:55;;;;;;;1.02;0.63;;;;;;;;;;5051946;22;20054;-95
2023/04/19 14:52:25;;;;;;;4.32;1.80;;;;;;;;;;5045514;28;20084;-96
2023/04/19 14:55:06;;;;;;;3.58;1.60;;;;;;;;;;5051862;28;20030;-96
2023/04/19 14:57:34;;;;;;;6.55;1.83;;;;;;;;;;5033623;28;20020;-95
2023/04/19 15:00:06;;;;;;;1.98;1.40;;;;;;;;;;5025859;28;20025;-94
2023/04/19 15:02:36;;;;;;;5.70;1.60;;;;;;;;;;5049962;28;20029;-96
2023/04/19 15:05:22;;;;;;;;;;;;;;;;;;;;;
2023/04/19 15:07:51;;;;;;;3.95;1.83;;;;;;;;;;5044162;28;20045;-95
2023/04/19 15:10:40;;;;;;;2.28;1.58;;;;;;;;;;5023552;28;20034;-96
2023/04/19 15:13:14;;;;;;;4.22;1.95;;;;;;;;;;5006414;28;20037;-95
2023/04/19 15:23:32;;;;;;;2.83;1.50;;;;;;;;;;5495932;22;20041;-95
2023/04/19 15:25:59;;;;;;;6.90;2.28;;;;;;;;;;5054288;22;20083;-96
2023/04/19 15:28:25;;;;;;;4.18;2.30;;;;;;;;;;5047029;28;20025;-96
2023/04/19 15:30:58;;;;;;;3.25;2.05;;;;;;;;;;5049996;28;20043;-95
2023/04/19 15:33:34;;;;;;;5.72;1.95;;;;;;;;;;5051429;28;20099;-96
2023/04/19 15:36:02;;;;;;;4.53;2.50;;;;;;;;;;5028971;28;19997;-95
2023/04/19 15:39:09;;;;;;;5.50;1.80;;;;;;;;;;5042851;28;20034;-95
2023/04/19 15:41:34;;;;;;;3.22;2.10;;;;;;;;;;5046767;28;20057;-96
2023/04/19 15:44:00;;;;;;;2.60;1.80;;;;;;;;;;5030404;28;20021;-96
2023/04/19 15:46:25;;;;;;;4.05;2.28;;;;;;;;;;5031750;28;20018;-96
2023/04/19 15:48:59;;;;;;;7.38;2.30;;;;;;;;;;5048396;28;20097;-96
2023/04/19 15:51:26;;;;;;;5.38;2.22;;;;;;;;;;5030235;28;20025;-96
2023/04/19 15:53:56;;;;;;;4.15;2.10;;;;;;;;;;5043049;28;20037;-95
2023/04/19 15:56:22;;;;;;;3.85;2.25;;;;;;;;;;5027115;28;20097;-95
2023/04/19 15:59:05;;;;;;;3.50;1.90;;;;;;;;;;5025608;28;20021;-95
2023/04/19 16:01:31;;;;;;;6.68;2.10;;;;;;;;;;5045126;28;20025;-96
2023/04/19 16:03:57;;;;;;;9.25;2.50;;;;;;;;;;5041821;28;20033;-96
2023/04/19 16:06:41;;;;;;;4.57;2.15;;;;;;;;;;5026300;28;20500;-95
2023/04/19 16:09:07;;;;;;;6.70;2.03;;;;;;;;;;5027680;28;20064;-96
2023/04/19 16:20:23;;;;;;;9.10;2.47;;;;;;;;;;5027437;28;20037;-96
2023/04/19 16:22:50;;;;;;;3.28;2.47;;;;;;;;;;5020783;28;20025;-94
2023/04/19 16:25:18;;;;;;;3.95;2.55;;;;;;;;;;5021090;28;20053;-96
2023/04/19 16:27:44;;;;;;;5.07;2.60;;;;;;;;;;5016149;28;20040;-94
2023/04/19 16:30:10;;;;;;;4.43;2.78;;;;;;;;;;5017864;28;20041;-95
2023/04/19 16:32:36;;;;;;;8.32;2.58;;;;;;;;;;5018350;28;20025;-96
2023/04/19 16:35:02;;;;;;;5.90;2.85;;;;;;;;;;5018076;28;20107;-95
2023/04/19 16:37:48;;;;;;;4.03;2.70;;;;;;;;;;5014849;28;20061;-96
2023/04/19 16:43:14;;;;;;;8.35;2.65;;;;;;;;;;5022786;28;20040;-95
2023/04/19 16:45:41;;;;;;;5.40;2.55;;;;;;;;;;5020468;28;20450;-95
2023/04/19 16:48:09;;;;;;;4.32;2.38;;;;;;;;;;5039678;28;20397;-96
2023/04/19 16:50:44;;;;;;;5.57;2.38;;;;;;;;;;5020323;28;20092;-96
2023/04/19 16:53:17;;;;;;;4.10;2.40;;;;;;;;;;5020006;28;20120;-96
2023/04/19 16:55:48;;;;;;;10.65;2.78;;;;;;;;;;5020294;28;20048;-95
2023/04/19 17:04:31;;;;;;;4.20;2.28;;;;;;;;;;5002110;28;20042;-94
2023/04/19 17:07:07;;;;;;;7.05;2.28;;;;;;;;;;5036413;28;20018;-95
2023/04/19 17:09:59;;;;;;;8.45;3.67;;;;;;;;;;5033674;28;20025;-94
2023/04/19 17:18:22;;;;;;;7.32;2.03;;;;;;;;;;5120428;22;20061;-94
2023/04/19 17:20:49;;;;;;;4.82;2.13;;;;;;;;;;5038096;28;20029;-94
2023/04/19 17:23:42;;;;;;;11.38;2.50;;;;;;;;;;5037588;28;20043;-94
2023/04/19 17:26:24;;;;;;;4.60;2.42;;;;;;;;;;5014683;28;20033;-92
2023/04/19 17:29:12;;;;;;;8.80;2.72;;;;;;;;;;5012826;28;20041;-94
2023/04/19 17:35:22;;;;;;;4.28;2.28;;;;;;;;;;5018613;28;20053;-95
